Time;durP1;ratioP1;P1;durP2;ratioP2;P2;SDS_P1;SDS_P2;PMS_P1;PMS_P2;Temp;Humidity;BMP_temperature;BMP_pressure;BME280_temperature;BME280_humidity;BME280_pressure;Samples;Min_cycle;Max_cycle;Signal;HPM_P1;HPM_P2
2022/04/16 00:01:10;;;;;;;1.65;1.55;;;10.30;45.40;;;;;;5017149;28;20294;-76
2022/04/16 00:03:37;;;;;;;2.53;1.48;;;10.20;45.20;;;;;;5016579;28;20239;-77
2022/04/16 00:06:04;;;;;;;1.80;1.65;;;10.20;45.40;;;;;;5018097;28;20307;-77
2022/04/16 00:08:33;;;;;;;1.80;1.60;;;10.30;45.10;;;;;;5022712;28;20211;-76
2022/04/16 00:11:00;;;;;;;1.80;1.70;;;10.30;45.00;;;;;;5024778;28;20597;-76
2022/04/16 00:13:27;;;;;;;1.73;1.40;;;10.20;45.20;;;;;;5021548;28;20215;-75
2022/04/16 00:15:54;;;;;;;1.30;1.20;;;10.20;45.40;;;;;;5015669;28;20239;-76
2022/04/16 00:18:22;;;;;;;1.50;1.40;;;10.20;45.70;;;;;;5017149;28;20277;-77
2022/04/16 00:20:49;;;;;;;1.88;1.70;;;10.10;45.50;;;;;;5028746;28;20258;-76
2022/04/16 00:23:19;;;;;;;1.80;1.70;;;10.10;45.60;;;;;;5018723;28;20211;-76
2022/04/16 00:25:48;;;;;;;3.88;1.48;;;10.10;45.90;;;;;;5016031;28;20216;-74
2022/04/16 00:28:15;;;;;;;1.90;1.42;;;10.00;46.00;;;;;;5014861;28;20574;-77
2022/04/16 00:30:42;;;;;;;1.60;1.50;;;10.00;46.30;;;;;;5015483;28;20232;-77
2022/04/16 00:33:10;;;;;;;2.75;2.03;;;10.00;46.30;;;;;;5016165;28;20231;-76
2022/04/16 00:35:37;;;;;;;2.17;1.75;;;9.90;47.60;;;;;;5020747;28;20234;-75
2022/04/16 00:38:04;;;;;;;1.63;1.52;;;9.80;48.10;;;;;;5029529;28;20564;-77
2022/04/16 00:40:31;;;;;;;3.20;1.50;;;9.70;48.60;;;;;;5019006;28;20688;-76
2022/04/16 00:43:00;;;;;;;3.20;1.77;;;9.70;49.00;;;;;;5030608;28;20218;-76
2022/04/16 00:45:28;;;;;;;1.50;1.40;;;9.60;49.10;;;;;;5025454;28;20222;-77
2022/04/16 00:47:55;;;;;;;1.70;1.60;;;9.60;49.90;;;;;;5016123;28;20258;-78
2022/04/16 00:50:22;;;;;;;1.55;1.30;;;9.60;49.90;;;;;;5016149;28;20251;-76
2022/04/16 00:52:50;;;;;;;1.83;1.73;;;9.50;49.80;;;;;;5016656;28;20298;-77
2022/04/16 00:55:18;;;;;;;2.55;1.73;;;9.50;49.80;;;;;;5016965;28;20199;-77
2022/04/16 00:57:45;;;;;;;4.18;1.70;;;9.50;49.80;;;;;;5021270;28;20271;-75
2022/04/16 01:00:14;;;;;;;2.13;1.92;;;9.50;50.50;;;;;;5032496;28;20262;-75
2022/04/16 01:02:42;;;;;;;1.65;1.55;;;9.40;49.70;;;;;;5034817;28;20242;-76
2022/04/16 01:05:12;;;;;;;1.70;1.58;;;9.40;49.70;;;;;;5028340;28;20214;-76
2022/04/16 01:07:53;;;;;;;1.60;1.50;;;9.40;49.70;;;;;;5030878;28;20315;-77
2022/04/16 01:10:21;;;;;;;2.47;1.80;;;9.30;50.70;;;;;;5020137;28;20231;-77
2022/04/16 01:12:48;;;;;;;1.80;1.70;;;9.30;50.40;;;;;;5019576;28;20280;-77
2022/04/16 01:15:17;;;;;;;1.70;1.60;;;9.20;51.00;;;;;;5018595;28;20211;-78
2022/04/16 01:17:45;;;;;;;1.75;1.65;;;9.20;51.40;;;;;;5017205;28;20610;-77
2022/04/16 01:20:12;;;;;;;2.05;1.85;;;9.20;51.50;;;;;;5016002;28;20236;-76
2022/04/16 01:22:40;;;;;;;1.77;1.50;;;9.10;52.10;;;;;;5018701;28;20342;-76
2022/04/16 01:25:08;;;;;;;2.05;1.77;;;9.00;52.60;;;;;;5032809;28;20218;-76
2022/04/16 01:27:36;;;;;;;2.30;1.95;;;8.90;53.20;;;;;;5031763;28;20215;-76
2022/04/16 01:30:04;;;;;;;2.25;2.05;;;8.90;53.30;;;;;;5026631;28;20288;-75
2022/04/16 01:32:33;;;;;;;1.80;1.70;;;8.80;53.90;;;;;;5030226;28;20216;-76
2022/04/16 01:35:01;;;;;;;1.80;1.70;;;8.80;54.40;;;;;;5030414;28;20242;-76
2022/04/16 01:37:31;;;;;;;1.70;1.60;;;8.80;54.70;;;;;;5028199;28;20587;-77
2022/04/16 01:40:00;;;;;;;1.70;1.60;;;8.70;54.90;;;;;;5019050;28;20607;-77
2022/04/16 01:42:29;;;;;;;1.77;1.67;;;8.70;55.50;;;;;;5019244;28;20230;-76
2022/04/16 01:44:57;;;;;;;2.08;1.70;;;8.70;55.90;;;;;;5019223;28;20668;-77
2022/04/16 01:47:24;;;;;;;1.73;1.63;;;8.60;56.10;;;;;;5023322;28;20208;-76
2022/04/16 01:49:51;;;;;;;2.53;2.20;;;8.60;56.70;;;;;;5021004;28;20330;-76
2022/04/16 01:52:18;;;;;;;2.00;1.90;;;8.60;57.00;;;;;;5016128;28;20253;-76
2022/04/16 01:54:45;;;;;;;2.10;1.88;;;8.60;57.20;;;;;;5014016;28;20642;-76
2022/04/16 01:57:13;;;;;;;1.70;1.60;;;8.50;57.60;;;;;;5013952;28;20246;-75
2022/04/16 01:59:40;;;;;;;2.10;2.00;;;8.50;57.50;;;;;;5013815;28;20242;-76
2022/04/16 02:02:07;;;;;;;1.95;1.85;;;8.50;58.40;;;;;;5013903;28;20258;-76
2022/04/16 02:04:35;;;;;;;1.92;1.73;;;8.40;58.30;;;;;;5013768;28;20216;-79
2022/04/16 02:07:02;;;;;;;2.17;2.08;;;8.40;58.30;;;;;;5014276;28;20208;-76
2022/04/16 02:09:29;;;;;;;2.35;2.15;;;8.40;58.30;;;;;;5013544;28;20219;-77
2022/04/16 02:11:56;;;;;;;2.00;1.90;;;8.40;58.30;;;;;;5013759;28;20672;-77
2022/04/16 02:14:24;;;;;;;2.60;2.40;;;8.40;58.60;;;;;;5013388;28;20235;-76
2022/04/16 02:16:51;;;;;;;2.47;2.28;;;8.30;59.10;;;;;;5013354;28;20235;-77
2022/04/16 02:19:18;;;;;;;2.28;2.13;;;8.30;59.70;;;;;;5013187;28;20528;-76
2022/04/16 02:21:45;;;;;;;2.75;2.55;;;8.20;59.80;;;;;;5014894;28;20295;-76
2022/04/16 02:24:13;;;;;;;2.30;2.20;;;8.20;60.20;;;;;;5013451;28;20226;-76
2022/04/16 02:26:41;;;;;;;2.38;2.17;;;8.20;60.00;;;;;;5015113;28;20208;-75
2022/04/16 02:29:09;;;;;;;2.35;2.15;;;8.20;60.30;;;;;;5016638;28;20739;-77
2022/04/16 02:31:37;;;;;;;2.50;2.30;;;8.20;60.40;;;;;;5017566;28;20307;-77
2022/04/16 02:34:05;;;;;;;2.55;2.35;;;8.10;60.60;;;;;;5018093;28;20645;-77
2022/04/16 02:36:32;;;;;;;3.35;2.13;;;8.10;61.10;;;;;;5013925;28;20684;-77
2022/04/16 02:38:59;;;;;;;2.17;1.90;;;8.10;61.20;;;;;;5017137;28;20287;-74
2022/04/16 02:41:26;;;;;;;2.25;2.03;;;8.10;61.50;;;;;;5019883;28;20236;-75
2022/04/16 02:43:54;;;;;;;2.90;2.35;;;8.10;60.80;;;;;;5020702;28;20298;-76
2022/04/16 02:49:07;;;;;;;3.15;2.15;;;8.00;61.70;;;;;;5020954;28;20486;-77
2022/04/16 02:51:34;;;;;;;2.40;2.20;;;7.90;62.70;;;;;;5021633;28;20212;-75
2022/04/16 02:54:01;;;;;;;2.42;2.15;;;7.80;63.10;;;;;;5023899;28;20211;-77
2022/04/16 02:56:28;;;;;;;2.00;1.88;;;7.80;63.50;;;;;;5025995;28;20378;-76
2022/04/16 02:58:55;;;;;;;2.13;1.92;;;7.80;63.50;;;;;;5027984;28;20330;-77
2022/04/16 03:01:21;;;;;;;3.58;2.25;;;7.80;63.90;;;;;;5027494;28;20294;-76
2022/04/16 03:03:48;;;;;;;2.20;2.00;;;7.70;64.10;;;;;;5028197;28;20354;-77
2022/04/16 03:06:17;;;;;;;2.50;2.30;;;7.70;64.80;;;;;;5028288;28;20203;-76
2022/04/16 03:08:44;;;;;;;3.20;2.17;;;7.70;64.90;;;;;;5025630;28;20243;-77
2022/04/16 03:11:11;;;;;;;1.90;1.80;;;7.60;65.70;;;;;;5023842;28;20231;-77
2022/04/16 03:13:38;;;;;;;2.60;2.38;;;7.60;65.50;;;;;;5022623;28;20683;-76
2022/04/16 03:18:50;;;;;;;2.70;2.50;;;7.60;66.50;;;;;;5027805;28;20354;-77
2022/04/16 03:21:20;;;;;;;2.30;2.10;;;7.50;66.50;;;;;;5026045;28;20211;-77
2022/04/16 03:23:47;;;;;;;3.30;3.00;;;7.50;66.40;;;;;;5022722;28;20229;-77
2022/04/16 03:26:14;;;;;;;3.83;2.25;;;7.50;66.50;;;;;;5019429;28;20258;-75
2022/04/16 03:28:41;;;;;;;2.50;2.30;;;7.50;66.70;;;;;;5016792;28;20307;-75
2022/04/16 03:31:08;;;;;;;2.33;2.13;;;7.50;66.40;;;;;;5016236;28;20250;-77
2022/04/16 03:33:35;;;;;;;2.50;2.30;;;7.40;67.50;;;;;;5016912;28;20302;-74
2022/04/16 03:36:02;;;;;;;3.88;2.60;;;7.30;68.00;;;;;;5027152;28;20660;-74
2022/04/16 03:38:31;;;;;;;3.10;2.08;;;7.40;68.30;;;;;;5037008;28;20216;-74
2022/04/16 03:40:58;;;;;;;3.00;2.25;;;7.40;68.30;;;;;;5036767;28;20223;-75
2022/04/16 03:43:26;;;;;;;2.60;2.40;;;7.40;68.20;;;;;;5037542;28;20204;-76
2022/04/16 03:45:53;;;;;;;2.97;2.67;;;7.40;68.20;;;;;;5035732;28;20207;-76
2022/04/16 03:48:20;;;;;;;2.83;2.40;;;7.30;67.80;;;;;;5020410;28;20275;-76
2022/04/16 03:50:47;;;;;;;2.95;2.75;;;7.30;68.50;;;;;;5021668;28;20330;-77
2022/04/16 03:53:14;;;;;;;3.78;3.40;;;7.20;69.20;;;;;;5021255;28;20283;-76
2022/04/16 04:01:15;;;;;;;3.58;2.97;;;7.10;70.20;;;;;;5027634;28;20206;-78
2022/04/16 04:03:42;;;;;;;2.92;2.63;;;7.20;70.40;;;;;;5034705;28;20192;-74
2022/04/16 04:06:09;;;;;;;3.40;3.10;;;7.10;70.40;;;;;;5038755;28;20196;-72
2022/04/16 04:08:36;;;;;;;3.10;2.90;;;7.10;70.80;;;;;;5037894;28;20238;-75
2022/04/16 04:11:05;;;;;;;3.63;3.13;;;7.10;70.40;;;;;;5037821;28;20220;-73
2022/04/16 04:13:32;;;;;;;3.20;2.88;;;7.00;71.10;;;;;;5037222;28;20199;-76
2022/04/16 04:15:59;;;;;;;2.70;2.50;;;7.00;71.80;;;;;;5038548;28;20195;-73
2022/04/16 04:18:26;;;;;;;3.20;2.83;;;7.00;72.00;;;;;;5038912;28;20188;-73
2022/04/16 04:20:54;;;;;;;3.20;2.90;;;7.00;72.00;;;;;;5038366;28;20228;-73
2022/04/16 04:23:22;;;;;;;2.53;2.33;;;7.00;72.10;;;;;;5038341;28;20214;-74
2022/04/16 04:25:49;;;;;;;4.05;3.00;;;7.00;72.80;;;;;;5035488;28;20206;-74
2022/04/16 04:28:17;;;;;;;3.30;3.00;;;7.00;72.90;;;;;;5025337;28;20208;-77
2022/04/16 04:30:44;;;;;;;3.47;3.10;;;7.00;73.00;;;;;;5016916;28;20242;-77
2022/04/16 04:33:11;;;;;;;4.35;2.88;;;6.90;73.40;;;;;;5017396;28;20215;-77
2022/04/16 04:35:38;;;;;;;3.65;3.33;;;6.90;73.30;;;;;;5015822;28;20718;-78
2022/04/16 04:38:05;;;;;;;2.92;2.72;;;6.90;74.70;;;;;;5016656;28;20208;-76
2022/04/16 04:40:32;;;;;;;4.18;3.40;;;6.90;74.30;;;;;;5015853;28;20236;-76
2022/04/16 04:42:59;;;;;;;4.60;3.53;;;6.90;74.20;;;;;;5016527;28;20215;-77
2022/04/16 04:45:27;;;;;;;4.85;3.22;;;6.90;74.60;;;;;;5015722;28;20572;-77
2022/04/16 04:47:54;;;;;;;3.33;3.03;;;6.90;74.60;;;;;;5015480;28;20222;-77
2022/04/16 04:50:21;;;;;;;3.58;3.28;;;6.90;74.10;;;;;;5015546;28;20231;-77
2022/04/16 04:52:48;;;;;;;3.80;3.20;;;7.00;73.90;;;;;;5016861;28;20298;-77
2022/04/16 04:55:15;;;;;;;2.85;2.65;;;6.90;73.00;;;;;;5018847;28;20299;-77
2022/04/16 04:57:42;;;;;;;3.30;3.00;;;6.90;73.60;;;;;;5015949;28;20564;-77
2022/04/16 05:00:11;;;;;;;3.78;3.28;;;6.90;73.40;;;;;;5014675;28;20250;-77
2022/04/16 05:02:41;;;;;;;3.40;2.90;;;7.00;73.30;;;;;;5015317;28;20214;-77
2022/04/16 05:05:09;;;;;;;4.10;3.55;;;7.00;73.40;;;;;;5015051;28;20274;-77
2022/04/16 05:07:35;;;;;;;3.95;3.20;;;7.00;73.10;;;;;;5015137;28;20208;-76
2022/04/16 05:10:03;;;;;;;3.33;3.03;;;7.00;72.80;;;;;;5017053;28;20274;-76
2022/04/16 05:12:30;;;;;;;3.13;2.83;;;7.10;72.50;;;;;;5016603;28;20290;-77
2022/04/16 05:14:57;;;;;;;4.30;3.58;;;7.00;72.40;;;;;;5015918;28;20224;-77
2022/04/16 05:17:24;;;;;;;3.05;2.80;;;7.10;72.10;;;;;;5018549;28;20242;-76
2022/04/16 05:19:52;;;;;;;3.78;3.42;;;7.20;71.50;;;;;;5020827;28;20699;-77
2022/04/16 05:22:19;;;;;;;3.63;3.20;;;7.20;70.70;;;;;;5025003;28;20215;-75
2022/04/16 05:24:46;;;;;;;3.45;3.15;;;7.20;70.90;;;;;;5027026;28;20326;-77
2022/04/16 05:27:13;;;;;;;6.43;3.15;;;7.30;70.60;;;;;;5026134;28;20208;-75
2022/04/16 05:30:06;;;;;;;3.40;3.10;;;7.40;70.10;;;;;;5028819;28;20291;-77
2022/04/16 05:32:37;;;;;;;3.33;3.00;;;7.60;69.00;;;;;;5026191;28;20200;-75
2022/04/16 05:35:07;;;;;;;3.38;3.08;;;7.70;67.20;;;;;;5018005;28;20760;-77
2022/04/16 05:37:34;;;;;;;3.00;2.70;;;7.70;66.60;;;;;;5019476;28;20227;-77
2022/04/16 05:40:01;;;;;;;3.28;2.95;;;7.80;66.70;;;;;;5018521;28;20244;-77
2022/04/16 05:42:28;;;;;;;3.00;2.75;;;7.80;66.80;;;;;;5014521;28;20302;-76
2022/04/16 05:45:00;;;;;;;3.20;2.90;;;8.00;66.30;;;;;;5014589;28;20214;-76
2022/04/16 05:47:27;;;;;;;3.67;3.10;;;8.10;65.80;;;;;;5017473;28;20239;-76
2022/04/16 05:49:55;;;;;;;3.65;3.35;;;8.20;64.90;;;;;;5017885;28;20236;-75
2022/04/16 05:52:23;;;;;;;3.65;3.20;;;8.30;64.40;;;;;;5026973;28;20358;-76
2022/04/16 05:54:51;;;;;;;3.67;3.15;;;8.30;63.60;;;;;;5030752;28;20271;-75
2022/04/16 05:57:18;;;;;;;3.40;3.10;;;8.40;63.80;;;;;;5032108;28;20219;-76
2022/04/16 05:59:45;;;;;;;3.38;2.60;;;8.50;63.40;;;;;;5029521;28;20238;-75
2022/04/16 06:02:13;;;;;;;3.47;2.72;;;8.60;63.10;;;;;;5019920;28;20592;-76
2022/04/16 06:04:39;;;;;;;3.75;3.40;;;8.70;61.70;;;;;;5018850;28;20226;-77
2022/04/16 06:07:06;;;;;;;4.20;2.70;;;8.80;61.10;;;;;;5016253;28;20269;-77
2022/04/16 06:09:34;;;;;;;3.03;2.75;;;8.90;60.80;;;;;;5016412;28;20300;-75
2022/04/16 06:12:03;;;;;;;3.47;3.17;;;9.00;60.80;;;;;;5018612;28;20279;-76
2022/04/16 06:14:30;;;;;;;4.18;3.15;;;9.10;59.60;;;;;;5016912;28;20294;-77
2022/04/16 06:16:57;;;;;;;3.30;2.90;;;9.20;59.70;;;;;;5015947;28;20211;-77
2022/04/16 06:19:24;;;;;;;3.78;3.03;;;9.20;59.20;;;;;;5017342;28;20322;-77
2022/04/16 06:21:51;;;;;;;3.95;3.33;;;9.40;59.20;;;;;;5016761;28;20246;-77
2022/04/16 06:24:18;;;;;;;3.33;3.03;;;9.40;59.20;;;;;;5019397;28;20215;-75
2022/04/16 06:26:47;;;;;;;3.78;3.40;;;9.50;59.20;;;;;;5020349;28;20716;-77
2022/04/16 06:29:14;;;;;;;3.40;3.10;;;9.60;59.00;;;;;;5020777;28;20255;-76
2022/04/16 06:31:42;;;;;;;3.50;2.70;;;9.60;57.60;;;;;;5022728;28;20199;-76
2022/04/16 06:34:09;;;;;;;3.40;3.10;;;9.60;57.70;;;;;;5021088;28;20210;-76
2022/04/16 06:36:37;;;;;;;4.43;2.75;;;9.60;57.40;;;;;;5021997;28;20242;-76
2022/04/16 06:39:04;;;;;;;3.15;2.75;;;9.70;57.10;;;;;;5021673;28;20211;-73
2022/04/16 06:41:31;;;;;;;3.40;3.10;;;9.70;57.30;;;;;;5023031;28;20226;-76
2022/04/16 06:44:00;;;;;;;5.40;3.72;;;9.80;57.20;;;;;;5025318;28;20214;-76
2022/04/16 06:46:27;;;;;;;3.45;3.15;;;9.90;57.20;;;;;;5025099;28;20251;-77
2022/04/16 06:48:54;;;;;;;3.92;3.55;;;10.00;55.80;;;;;;5023447;28;20241;-76
2022/04/16 06:51:21;;;;;;;4.20;3.80;;;10.00;55.20;;;;;;5025548;28;20306;-76
2022/04/16 06:53:47;;;;;;;4.18;3.67;;;10.10;55.60;;;;;;5024087;28;20283;-77
2022/04/16 06:56:15;;;;;;;6.45;3.55;;;10.10;55.60;;;;;;5025602;28;20219;-75
2022/04/16 06:58:42;;;;;;;4.85;4.35;;;10.10;55.60;;;;;;5030584;28;20212;-76
2022/04/16 07:01:11;;;;;;;4.80;4.18;;;10.20;55.40;;;;;;5030987;28;20228;-76
2022/04/16 07:03:37;;;;;;;5.72;4.40;;;10.20;55.10;;;;;;5025308;28;20212;-77
2022/04/16 07:06:04;;;;;;;6.32;4.60;;;10.30;55.40;;;;;;5019112;28;20208;-76
2022/04/16 07:08:31;;;;;;;4.57;4.03;;;10.50;54.60;;;;;;5014927;28;20239;-76
2022/04/16 07:10:58;;;;;;;4.95;4.45;;;10.50;53.80;;;;;;5014577;28;20228;-77
2022/04/16 07:13:25;;;;;;;6.22;4.30;;;10.50;54.40;;;;;;5014404;28;20688;-76
2022/04/16 07:15:52;;;;;;;4.85;4.45;;;10.50;54.40;;;;;;5014120;28;20318;-76
2022/04/16 07:18:21;;;;;;;4.90;4.28;;;10.60;55.00;;;;;;5014172;28;20707;-77
2022/04/16 07:20:47;;;;;;;5.00;4.05;;;10.70;54.20;;;;;;5014750;28;20231;-77
2022/04/16 07:23:14;;;;;;;4.60;3.72;;;10.90;53.90;;;;;;5015556;28;20620;-76
2022/04/16 07:25:42;;;;;;;6.32;4.18;;;11.00;52.90;;;;;;5015618;28;20347;-77
2022/04/16 07:28:10;;;;;;;6.35;4.60;;;11.00;53.30;;;;;;5015086;28;20298;-75
2022/04/16 07:30:37;;;;;;;6.10;4.78;;;11.10;53.20;;;;;;5019934;28;20224;-75
2022/04/16 07:33:04;;;;;;;6.85;4.80;;;11.20;53.10;;;;;;5028464;28;20660;-76
2022/04/16 07:35:33;;;;;;;5.40;4.75;;;11.20;53.10;;;;;;5019680;28;20270;-74
2022/04/16 07:38:00;;;;;;;5.85;4.80;;;11.30;52.90;;;;;;5026806;28;20299;-75
2022/04/16 07:40:28;;;;;;;5.65;5.15;;;11.30;53.40;;;;;;5031447;28;20232;-74
2022/04/16 07:42:55;;;;;;;5.38;4.82;;;11.30;53.50;;;;;;5025719;28;20235;-76
2022/04/16 07:45:22;;;;;;;20.35;6.07;;;11.10;54.10;;;;;;5028970;28;20231;-75
2022/04/16 07:47:49;;;;;;;7.22;4.90;;;11.20;53.90;;;;;;5025756;28;20207;-76
2022/04/16 07:50:17;;;;;;;16.38;5.65;;;11.10;54.70;;;;;;5026117;28;20228;-75
2022/04/16 07:52:46;;;;;;;15.50;5.07;;;11.10;55.00;;;;;;5022895;28;20214;-78
2022/04/16 07:55:13;;;;;;;21.48;6.38;;;11.30;54.80;;;;;;5022847;28;20235;-76
2022/04/16 07:57:40;;;;;;;26.55;7.32;;;11.50;53.80;;;;;;5021424;28;20232;-76
2022/04/16 08:00:09;;;;;;;20.30;6.07;;;11.50;54.10;;;;;;5020067;28;20224;-76
2022/04/16 08:02:35;;;;;;;9.02;4.97;;;11.60;53.40;;;;;;5029780;28;20204;-75
2022/04/16 08:05:03;;;;;;;56.60;9.02;;;11.50;53.70;;;;;;5023950;28;20638;-78
2022/04/16 08:07:32;;;;;;;27.05;7.80;;;11.50;53.60;;;;;;5021045;28;20640;-77
2022/04/16 08:10:00;;;;;;;53.33;9.07;;;11.50;53.60;;;;;;5019191;28;20231;-76
2022/04/16 08:12:27;;;;;;;20.05;6.57;;;11.50;53.60;;;;;;5018686;28;20274;-77
2022/04/16 08:14:54;;;;;;;29.92;7.78;;;11.70;53.40;;;;;;5018836;28;20211;-75
2022/04/16 08:17:21;;;;;;;29.20;7.65;;;11.50;53.60;;;;;;5019771;28;20310;-77
2022/04/16 08:19:48;;;;;;;24.20;5.90;;;11.60;53.90;;;;;;5020701;28;20303;-76
2022/04/16 08:22:21;;;;;;;30.38;7.55;;;11.50;53.60;;;;;;5023453;28;20223;-77
2022/04/16 08:25:43;;;;;;;22.02;6.43;;;11.50;54.00;;;;;;5025354;28;20231;-76
2022/04/16 08:27:45;;;;;;;26.08;5.75;;;11.70;54.20;;;;;;5016341;28;20579;-76
2022/04/16 08:30:13;;;;;;;24.35;6.82;;;11.70;53.40;;;;;;5016555;28;20753;-77
2022/04/16 08:32:42;;;;;;;6.15;4.82;;;11.80;52.00;;;;;;5017246;28;20215;-76
2022/04/16 08:35:09;;;;;;;11.95;5.10;;;12.00;51.10;;;;;;5017437;28;20208;-77
2022/04/16 08:37:36;;;;;;;8.68;4.80;;;12.20;51.30;;;;;;5015633;28;20204;-76
2022/04/16 08:40:05;;;;;;;6.30;4.72;;;12.20;50.80;;;;;;5015557;28;20904;-75
2022/04/16 08:42:33;;;;;;;9.05;5.32;;;12.20;51.30;;;;;;5015765;28;20267;-74
2022/04/16 08:45:01;;;;;;;10.60;5.25;;;12.20;50.50;;;;;;5016223;28;20204;-76
2022/04/16 08:47:29;;;;;;;6.03;4.80;;;12.20;50.50;;;;;;5016062;28;20710;-77
2022/04/16 08:49:56;;;;;;;5.80;4.40;;;12.60;48.50;;;;;;5015289;28;20235;-76
2022/04/16 08:52:24;;;;;;;8.63;4.80;;;12.50;48.10;;;;;;5020906;28;20295;-74
2022/04/16 08:54:52;;;;;;;5.30;4.80;;;12.50;47.30;;;;;;5025035;28;20216;-76
2022/04/16 08:57:19;;;;;;;6.90;5.78;;;12.50;47.30;;;;;;5021521;28;20235;-76
2022/04/16 08:59:50;;;;;;;6.05;4.80;;;12.30;47.00;;;;;;5019684;28;20232;-73
2022/04/16 09:02:19;;;;;;;6.43;4.57;;;12.30;47.70;;;;;;5021417;28;20301;-77
2022/04/16 09:04:47;;;;;;;5.68;5.07;;;12.60;46.80;;;;;;5017142;28;20619;-73
2022/04/16 09:07:15;;;;;;;6.68;5.75;;;12.50;46.00;;;;;;5016247;28;20303;-73
2022/04/16 09:09:42;;;;;;;6.07;4.85;;;12.30;46.00;;;;;;5016226;28;20231;-74
2022/04/16 09:12:16;;;;;;;6.30;4.72;;;12.30;46.10;;;;;;5017297;28;20251;-73
2022/04/16 09:14:45;;;;;;;7.25;4.88;;;12.40;44.10;;;;;;5022387;28;20192;-75
2022/04/16 09:17:16;;;;;;;6.22;5.25;;;12.20;44.70;;;;;;5029071;28;20207;-78
2022/04/16 09:19:44;;;;;;;7.00;5.60;;;12.30;44.20;;;;;;5033355;28;20242;-76
2022/04/16 09:22:11;;;;;;;8.43;6.10;;;12.30;44.60;;;;;;5033513;28;20323;-77
2022/04/16 09:24:48;;;;;;;8.98;6.10;;;12.30;44.70;;;;;;5034471;28;20196;-75
2022/04/16 09:27:15;;;;;;;6.43;5.15;;;12.40;45.00;;;;;;5020318;28;20279;-75
2022/04/16 09:29:43;;;;;;;7.20;5.15;;;12.70;44.60;;;;;;5015551;28;20224;-76
2022/04/16 09:32:10;;;;;;;6.30;4.65;;;12.70;43.20;;;;;;5018118;28;20238;-75
2022/04/16 09:34:47;;;;;;;9.55;5.50;;;12.30;42.20;;;;;;5022050;28;20238;-76
2022/04/16 09:37:15;;;;;;;6.45;5.22;;;12.60;42.00;;;;;;5022022;28;20231;-75
2022/04/16 09:39:42;;;;;;;7.03;5.22;;;12.80;42.10;;;;;;5019246;28;20258;-75
2022/04/16 09:42:09;;;;;;;5.85;5.25;;;12.90;42.20;;;;;;5014757;28;20318;-74
2022/04/16 09:44:36;;;;;;;5.95;4.82;;;13.40;40.50;;;;;;5014234;28;20207;-74
2022/04/16 09:47:04;;;;;;;6.60;5.95;;;13.60;40.10;;;;;;5013816;28;20207;-74
2022/04/16 09:49:34;;;;;;;5.75;5.25;;;13.10;41.00;;;;;;5013640;28;20318;-75
2022/04/16 09:52:02;;;;;;;7.50;5.35;;;13.00;41.10;;;;;;5014706;28;20211;-76
2022/04/16 09:54:33;;;;;;;7.45;5.90;;;13.00;40.30;;;;;;5014975;28;20216;-77
2022/04/16 09:57:03;;;;;;;6.75;4.95;;;12.60;40.80;;;;;;5014951;28;20242;-76
2022/04/16 09:59:36;;;;;;;6.70;5.63;;;12.80;41.60;;;;;;5015328;28;20319;-77
2022/04/16 10:02:04;;;;;;;5.95;4.70;;;13.30;39.10;;;;;;5015088;28;20224;-77
2022/04/16 10:04:31;;;;;;;7.40;4.30;;;12.90;39.20;;;;;;5018167;28;20223;-75
2022/04/16 10:06:58;;;;;;;7.85;5.28;;;13.10;39.20;;;;;;5032554;28;20196;-74
2022/04/16 10:09:27;;;;;;;4.80;4.28;;;13.00;38.80;;;;;;5032748;28;20263;-75
2022/04/16 10:14:46;;;;;;;4.15;3.75;;;13.50;36.90;;;;;;5030973;28;20210;-75
2022/04/16 10:17:25;;;;;;;5.60;4.00;;;13.60;36.60;;;;;;5028486;28;20212;-74
2022/04/16 10:19:54;;;;;;;4.55;3.88;;;13.70;36.80;;;;;;5020096;28;20477;-75
2022/04/16 10:22:25;;;;;;;8.90;4.25;;;13.60;36.40;;;;;;5017805;28;20270;-75
2022/04/16 10:24:53;;;;;;;9.60;4.28;;;13.80;34.90;;;;;;5013970;28;20264;-74
2022/04/16 10:27:27;;;;;;;10.90;5.10;;;13.60;34.00;;;;;;5014013;28;20215;-75
2022/04/16 10:29:54;;;;;;;9.85;4.63;;;13.70;35.20;;;;;;5016050;28;20758;-75
2022/04/16 10:32:21;;;;;;;19.83;5.63;;;13.70;35.60;;;;;;5021766;28;20672;-75
2022/04/16 10:34:48;;;;;;;11.00;5.47;;;14.10;33.30;;;;;;5019532;28;20430;-74
2022/04/16 10:37:25;;;;;;;11.67;4.63;;;14.40;33.50;;;;;;5018166;28;20451;-74
2022/04/16 10:39:55;;;;;;;7.07;4.67;;;14.50;33.60;;;;;;5019450;28;20555;-75
2022/04/16 10:42:33;;;;;;;4.70;4.20;;;14.20;33.40;;;;;;5019955;28;20490;-77
2022/04/16 10:45:10;;;;;;;3.87;3.50;;;14.20;34.00;;;;;;5019256;28;20446;-73
2022/04/16 10:47:39;;;;;;;8.67;3.77;;;14.40;33.50;;;;;;5016612;28;21050;-73
2022/04/16 10:50:14;;;;;;;14.07;3.60;;;14.60;32.10;;;;;;5015217;28;20486;-73
2022/04/16 10:52:41;;;;;;;5.13;3.70;;;14.80;30.70;;;;;;5016748;28;20405;-74
2022/04/16 10:55:08;;;;;;;14.50;3.50;;;15.10;30.20;;;;;;5020280;28;20537;-74
2022/04/16 10:57:37;;;;;;;3.63;2.67;;;15.10;29.40;;;;;;5017956;28;20459;-73
2022/04/16 11:00:14;;;;;;;2.37;2.17;;;14.80;29.20;;;;;;5018558;28;21002;-74
2022/04/16 11:02:41;;;;;;;2.67;2.10;;;15.10;28.50;;;;;;5015138;28;20470;-74
2022/04/16 11:05:10;;;;;;;1.90;1.80;;;14.80;29.20;;;;;;5017360;28;20464;-75
2022/04/16 11:07:38;;;;;;;1.80;1.70;;;14.80;29.90;;;;;;5022912;28;20516;-75
2022/04/16 11:10:07;;;;;;;2.50;2.30;;;14.50;28.60;;;;;;5020658;28;20677;-74
2022/04/16 11:12:37;;;;;;;3.57;2.60;;;14.70;28.80;;;;;;5024190;28;20518;-75
2022/04/16 11:15:09;;;;;;;3.37;2.70;;;14.30;28.80;;;;;;5019371;28;20462;-74
2022/04/16 11:17:36;;;;;;;3.70;3.20;;;14.40;29.70;;;;;;5019272;28;20414;-75
2022/04/16 11:20:05;;;;;;;3.00;2.60;;;14.30;30.30;;;;;;5019229;28;20505;-77
2022/04/16 11:22:33;;;;;;;3.30;3.00;;;14.30;29.80;;;;;;5020031;28;20997;-77
2022/04/16 11:25:00;;;;;;;3.50;3.20;;;14.70;29.70;;;;;;5017862;28;20434;-75
2022/04/16 11:35:58;;;;;;;2.70;1.90;;;14.20;28.00;;;;;;5022722;28;21054;-76
2022/04/16 11:38:29;;;;;;;2.30;2.10;;;13.90;28.80;;;;;;5023110;28;20530;-77
2022/04/16 11:40:59;;;;;;;2.28;2.08;;;13.80;28.60;;;;;;5023928;28;20228;-75
2022/04/16 11:43:28;;;;;;;2.63;2.42;;;13.90;28.60;;;;;;5029105;28;20238;-77
2022/04/16 11:45:56;;;;;;;2.70;2.50;;;14.10;28.60;;;;;;5024592;28;20239;-78
2022/04/16 11:48:24;;;;;;;2.60;2.40;;;14.10;28.60;;;;;;5022121;28;20425;-76
2022/04/16 11:50:52;;;;;;;2.90;2.70;;;14.70;28.00;;;;;;5022039;28;20585;-76
2022/04/16 11:53:19;;;;;;;2.47;2.17;;;14.50;27.20;;;;;;5023640;28;20466;-77
2022/04/16 11:55:47;;;;;;;2.40;2.20;;;14.40;26.80;;;;;;5021548;28;20433;-74
2022/04/16 11:58:14;;;;;;;2.93;2.63;;;14.40;26.90;;;;;;5020265;28;20204;-73
2022/04/16 12:00:53;;;;;;;3.77;2.57;;;14.40;26.90;;;;;;5019034;28;20477;-74
2022/04/16 12:03:21;;;;;;;1.93;1.83;;;14.50;26.20;;;;;;5020777;28;20461;-75
2022/04/16 12:05:50;;;;;;;2.00;1.90;;;14.70;26.60;;;;;;5020335;28;20926;-76
2022/04/16 12:08:20;;;;;;;2.20;2.00;;;14.80;26.60;;;;;;5019073;28;20433;-74
2022/04/16 12:10:50;;;;;;;2.60;2.40;;;14.60;26.50;;;;;;5017225;28;20228;-75
2022/04/16 12:13:17;;;;;;;2.60;2.40;;;14.60;26.70;;;;;;5024976;28;20439;-76
2022/04/16 12:15:46;;;;;;;2.50;2.28;;;14.50;26.50;;;;;;5023062;28;20513;-76
2022/04/16 12:18:15;;;;;;;2.20;2.00;;;14.60;26.10;;;;;;5023500;28;20211;-77
2022/04/16 12:20:46;;;;;;;2.72;2.10;;;14.70;25.10;;;;;;5021527;28;20453;-77
2022/04/16 12:23:20;;;;;;;2.97;2.30;;;14.50;24.90;;;;;;5020940;28;20299;-76
2022/04/16 12:25:48;;;;;;;3.40;2.50;;;14.50;25.90;;;;;;5023068;28;20204;-76
2022/04/16 12:28:15;;;;;;;2.95;2.65;;;14.50;25.70;;;;;;5032352;28;20433;-77
2022/04/16 12:30:50;;;;;;;2.92;2.50;;;14.50;25.80;;;;;;5030088;28;20304;-77
2022/04/16 12:33:17;;;;;;;3.17;2.20;;;14.60;25.00;;;;;;5034577;28;20259;-75
2022/04/16 12:35:46;;;;;;;2.77;2.30;;;14.50;24.90;;;;;;5036204;28;20429;-77
2022/04/16 12:38:17;;;;;;;2.70;2.40;;;14.70;25.10;;;;;;5034386;28;20428;-76
2022/04/16 12:40:45;;;;;;;4.00;2.07;;;15.10;25.40;;;;;;5035681;28;20480;-74
2022/04/16 12:43:12;;;;;;;2.50;2.30;;;14.60;25.00;;;;;;5035151;28;20450;-75
2022/04/16 12:45:39;;;;;;;2.70;2.50;;;14.70;25.10;;;;;;5031100;28;20539;-76
2022/04/16 12:48:06;;;;;;;2.57;2.37;;;14.70;25.10;;;;;;5021526;28;20471;-77
2022/04/16 12:50:33;;;;;;;2.30;2.10;;;14.90;23.60;;;;;;5022695;28;20472;-76
2022/04/16 12:53:04;;;;;;;2.67;2.30;;;14.60;23.10;;;;;;5021731;28;21151;-76
2022/04/16 12:55:31;;;;;;;2.43;2.23;;;14.70;24.00;;;;;;5020528;28;20462;-78
2022/04/16 12:57:59;;;;;;;3.10;2.80;;;14.80;24.80;;;;;;5019768;28;20447;-78
2022/04/16 13:00:25;;;;;;;2.60;2.40;;;14.70;24.50;;;;;;5018592;28;21005;-77
2022/04/16 13:02:52;;;;;;;5.43;2.40;;;14.50;24.90;;;;;;5017557;28;20475;-77
2022/04/16 13:05:20;;;;;;;3.30;2.87;;;14.70;24.50;;;;;;5018485;28;20565;-78
2022/04/16 13:07:47;;;;;;;3.27;2.80;;;14.90;24.50;;;;;;5017253;28;20474;-77
2022/04/16 13:10:16;;;;;;;5.60;3.37;;;15.00;24.40;;;;;;5017324;28;20453;-77
2022/04/16 13:12:43;;;;;;;6.77;2.90;;;15.00;23.50;;;;;;5018734;28;20429;-77
2022/04/16 13:15:11;;;;;;;3.30;2.70;;;15.00;24.30;;;;;;5019683;28;20525;-77
2022/04/16 13:17:39;;;;;;;4.43;2.70;;;15.10;23.90;;;;;;5020160;28;20494;-77